createdAt,value
2022-12-03T00:03:21.530Z,101420.02
2022-12-03T00:08:24.091Z,101419.37
2022-12-03T00:13:26.556Z,101422.08
2022-12-03T00:25:28.496Z,101410.79
2022-12-03T00:30:33.396Z,101405.67
2022-12-03T00:35:35.865Z,101400.49
2022-12-03T00:40:38.453Z,101400.34
2022-12-03T00:45:40.946Z,101400.27
2022-12-03T00:50:43.446Z,101398.37
2022-12-03T00:55:45.983Z,101397.00
2022-12-03T01:00:48.504Z,101395.58
2022-12-03T01:05:51.003Z,101393.20
2022-12-03T01:10:53.511Z,101392.39
2022-12-03T01:15:56.164Z,101388.06
2022-12-03T01:20:58.723Z,101384.42
2022-12-03T01:26:01.220Z,101385.63
2022-12-03T01:31:06.769Z,101383.59
2022-12-03T01:36:09.476Z,101386.43
2022-12-03T01:41:12.197Z,101383.34
2022-12-03T01:46:19.470Z,101381.23
2022-12-03T01:51:22.212Z,101377.95
2022-12-03T01:56:27.202Z,101376.84
2022-12-03T02:01:29.889Z,101377.02
2022-12-03T02:06:32.507Z,101368.33
2022-12-03T02:11:38.707Z,101364.31
2022-12-03T02:16:42.327Z,101363.80
2022-12-03T02:21:50.728Z,101361.66
2022-12-03T02:26:53.254Z,101356.19
2022-12-03T02:31:56.204Z,101353.46
2022-12-03T02:36:59.368Z,101349.28
2022-12-03T02:42:04.901Z,101346.08
2022-12-03T02:47:07.638Z,101345.11
2022-12-03T02:52:10.734Z,101341.39
2022-12-03T02:57:13.387Z,101340.20
2022-12-03T03:02:16.371Z,101338.52
2022-12-03T03:07:18.967Z,101339.61
2022-12-03T03:12:21.474Z,101337.83
2022-12-03T03:17:24.522Z,101336.50
2022-12-03T03:22:38.711Z,101339.04
2022-12-03T03:27:41.997Z,101337.35
2022-12-03T03:32:44.692Z,101332.96
2022-12-03T03:37:47.221Z,101329.14
2022-12-03T03:42:49.788Z,101322.13
2022-12-03T03:47:53.460Z,101317.61
2022-12-03T03:52:57.283Z,101320.38
2022-12-03T03:58:00.057Z,101318.65
2022-12-03T04:03:05.275Z,101317.11
2022-12-03T04:08:07.873Z,101319.80
2022-12-03T04:13:10.424Z,101321.67
2022-12-03T04:18:16.046Z,101319.80
2022-12-03T04:23:18.528Z,101305.35
2022-12-03T04:28:24.035Z,101311.05
2022-12-03T04:33:29.505Z,101303.61
2022-12-03T04:38:32.019Z,101307.73
2022-12-03T04:43:34.833Z,101308.75
2022-12-03T04:48:37.352Z,101305.56
2022-12-03T04:53:45.976Z,101307.19
2022-12-03T04:58:48.737Z,101304.90
2022-12-03T05:03:51.237Z,101301.75
2022-12-03T05:08:53.713Z,101297.46
2022-12-03T05:13:56.258Z,101299.39
2022-12-03T05:18:58.807Z,101303.20
2022-12-03T05:24:01.974Z,101302.89
2022-12-03T05:29:04.471Z,101294.35
2022-12-03T05:34:07.029Z,101294.84
2022-12-03T05:39:09.518Z,101288.56
2022-12-03T05:44:16.130Z,101293.41
2022-12-03T05:49:21.501Z,101290.82
2022-12-03T05:54:24.085Z,101288.82
2022-12-03T05:59:26.614Z,101285.54
2022-12-03T06:04:29.135Z,101283.11
2022-12-03T06:09:31.617Z,101282.50
2022-12-03T06:14:35.532Z,101284.34
2022-12-03T06:19:38.071Z,101285.55
2022-12-03T06:24:40.614Z,101285.00
2022-12-03T06:29:43.166Z,101285.41
2022-12-03T06:34:45.721Z,101289.83
2022-12-03T06:39:48.254Z,101286.96
2022-12-03T06:44:51.115Z,101282.55
2022-12-03T06:49:54.165Z,101282.95
2022-12-03T06:54:56.857Z,101281.00
2022-12-03T06:59:59.436Z,101280.73
2022-12-03T07:05:02.239Z,101275.75
2022-12-03T07:10:05.514Z,101276.61
2022-12-03T07:15:08.438Z,101275.23
2022-12-03T07:20:11.527Z,101273.11
2022-12-03T07:25:19.532Z,101275.70
2022-12-03T07:30:27.604Z,101276.13
2022-12-03T07:35:30.183Z,101276.19
2022-12-03T07:40:32.664Z,101273.08
2022-12-03T07:45:35.107Z,101265.04
2022-12-03T07:50:37.741Z,101265.30
2022-12-03T07:55:42.642Z,101267.85
2022-12-03T08:00:45.300Z,101269.75
2022-12-03T08:05:47.817Z,101266.41
2022-12-03T08:10:50.352Z,101270.75
2022-12-03T08:15:52.977Z,101274.26
2022-12-03T08:20:55.592Z,101278.62
2022-12-03T08:26:01.979Z,101280.63
2022-12-03T08:31:18.465Z,101279.04
2022-12-03T08:36:29.136Z,101279.35
2022-12-03T08:41:34.554Z,101275.91
2022-12-03T08:46:37.115Z,101269.76
2022-12-03T08:51:39.601Z,101271.86
2022-12-03T08:56:44.787Z,101273.38
2022-12-03T09:01:48.828Z,101267.34
2022-12-03T09:06:52.738Z,101266.73
2022-12-03T09:11:55.549Z,101269.55
2022-12-03T09:16:58.236Z,101266.23
2022-12-03T09:22:00.881Z,101263.67
2022-12-03T09:27:03.682Z,101265.84
2022-12-03T09:32:06.275Z,101268.55
2022-12-03T09:37:09.607Z,101266.52
2022-12-03T09:42:12.126Z,101260.45
2022-12-03T09:47:14.636Z,101261.55
2022-12-03T09:52:24.265Z,101258.77
2022-12-03T09:57:28.120Z,101260.29
2022-12-03T10:02:30.789Z,101250.86
2022-12-03T10:07:33.427Z,101247.77
2022-12-03T10:12:35.961Z,101244.80
2022-12-03T10:17:38.455Z,101240.38
2022-12-03T10:23:55.078Z,101240.09
2022-12-03T10:28:57.935Z,101235.78
2022-12-03T10:34:00.416Z,101236.05
2022-12-03T10:39:16.793Z,101236.24
2022-12-03T10:44:22.016Z,101235.25
2022-12-03T10:49:24.601Z,101235.73
2022-12-03T10:54:28.570Z,101232.09
2022-12-03T10:59:33.750Z,101232.70
2022-12-03T11:04:36.888Z,101228.45
2022-12-03T11:09:42.450Z,101226.70
2022-12-03T11:14:48.864Z,101226.04
2022-12-03T11:19:52.176Z,101215.45
2022-12-03T11:25:00.565Z,101216.16
2022-12-03T11:30:03.394Z,101205.55
2022-12-03T11:35:12.399Z,101203.79
2022-12-03T11:40:15.954Z,101197.61
2022-12-03T11:45:23.166Z,101186.25
2022-12-03T11:50:39.464Z,101185.66
2022-12-03T11:55:48.882Z,101183.03
2022-12-03T12:00:56.177Z,101178.92
2022-12-03T12:06:19.372Z,101176.36
2022-12-03T12:11:27.730Z,101180.23
2022-12-03T12:16:36.685Z,101175.07
2022-12-03T12:22:15.752Z,101173.84
2022-12-03T12:27:21.447Z,101167.17
2022-12-03T12:32:34.549Z,101166.40
2022-12-03T12:37:47.632Z,101165.09
2022-12-03T12:42:53.703Z,101170.56
2022-12-03T12:48:04.264Z,101168.42
2022-12-03T12:53:16.539Z,101168.95
2022-12-03T12:58:20.289Z,101173.59
2022-12-03T13:03:28.341Z,101173.59
2022-12-03T13:08:37.319Z,101178.30
2022-12-03T13:13:44.313Z,101176.42
2022-12-03T13:18:49.898Z,101176.48
2022-12-03T13:23:55.705Z,101172.77
2022-12-03T13:28:59.577Z,101170.48
2022-12-03T13:34:11.218Z,101172.64
2022-12-03T13:39:21.217Z,101169.89
2022-12-03T13:44:23.789Z,101167.10
2022-12-03T13:49:26.737Z,101162.30
2022-12-03T13:54:31.261Z,101161.97
2022-12-03T13:59:33.776Z,101162.51
2022-12-03T14:04:36.771Z,101162.39
2022-12-03T14:09:39.229Z,101161.52
2022-12-03T14:14:41.732Z,101160.80
2022-12-03T14:19:44.773Z,101167.59
2022-12-03T14:24:47.235Z,101170.38
2022-12-03T14:29:50.029Z,101169.88
2022-12-03T14:34:52.623Z,101169.56
2022-12-03T14:39:55.241Z,101172.92
2022-12-03T14:44:58.048Z,101168.90
2022-12-03T14:50:00.840Z,101164.98
2022-12-03T14:55:03.695Z,101162.64
2022-12-03T15:00:07.089Z,101160.62
2022-12-03T15:05:10.049Z,101152.01
2022-12-03T15:10:12.560Z,101148.45
2022-12-03T15:15:15.119Z,101136.49
2022-12-03T15:20:17.625Z,101141.54
2022-12-03T15:25:24.393Z,101149.43
2022-12-03T15:30:26.916Z,101150.44
2022-12-03T15:35:31.020Z,101154.02
2022-12-03T15:40:33.501Z,101148.65
2022-12-03T15:45:36.079Z,101154.61
2022-12-03T15:50:40.429Z,101157.76
2022-12-03T15:55:43.058Z,101156.70
2022-12-03T16:00:45.546Z,101153.40
2022-12-03T16:05:48.034Z,101158.84
2022-12-03T16:10:50.653Z,101165.83
2022-12-03T16:15:53.265Z,101156.48
2022-12-03T16:20:55.907Z,101161.38
2022-12-03T16:25:58.378Z,101160.64
2022-12-03T16:31:32.898Z,101158.95
2022-12-03T16:36:35.461Z,101161.45
2022-12-03T16:41:38.023Z,101161.60
2022-12-03T16:46:40.664Z,101161.87
2022-12-03T16:51:45.563Z,101167.83
2022-12-03T16:56:48.021Z,101174.33
2022-12-03T17:01:50.632Z,101177.88
2022-12-03T17:06:53.247Z,101177.19
2022-12-03T17:11:55.763Z,101174.61
2022-12-03T17:16:58.247Z,101177.17
2022-12-03T17:22:00.830Z,101168.83
2022-12-03T17:27:06.089Z,101172.15
2022-12-03T17:32:08.874Z,101173.58
2022-12-03T17:37:11.363Z,101178.32
2022-12-03T17:42:13.959Z,101171.60
2022-12-03T17:47:16.661Z,101169.48
2022-12-03T17:52:19.191Z,101175.88
2022-12-03T17:57:21.664Z,101169.86
2022-12-03T18:02:24.122Z,101170.19
2022-12-03T18:07:26.795Z,101170.86
2022-12-03T18:12:29.489Z,101176.57
2022-12-03T18:17:32.048Z,101173.57
2022-12-03T18:22:34.956Z,101165.75
2022-12-03T18:27:37.465Z,101170.94
2022-12-03T18:32:42.415Z,101171.77
2022-12-03T18:37:45.060Z,101172.54
2022-12-03T18:42:50.163Z,101176.64
2022-12-03T18:47:52.757Z,101171.77
2022-12-03T18:52:55.304Z,101164.11
2022-12-03T18:57:57.741Z,101165.75
2022-12-03T19:03:03.561Z,101164.80
2022-12-03T19:08:14.239Z,101158.81
2022-12-03T19:13:16.864Z,101152.41
2022-12-03T19:18:19.369Z,101156.77
2022-12-03T19:23:21.860Z,101166.58
2022-12-03T19:28:24.729Z,101163.44
2022-12-03T19:33:28.795Z,101168.61
2022-12-03T19:38:32.093Z,101169.95
2022-12-03T19:43:36.418Z,101171.90
2022-12-03T19:48:40.451Z,101174.20
2022-12-03T19:53:43.261Z,101171.38
2022-12-03T19:58:46.886Z,101176.98
2022-12-03T20:03:52.305Z,101183.52
2022-12-03T20:08:59.046Z,101182.42
2022-12-03T20:14:07.117Z,101188.51
2022-12-03T20:19:12.705Z,101184.30
2022-12-03T20:24:17.659Z,101181.23
2022-12-03T20:29:20.252Z,101184.29
2022-12-03T20:34:22.720Z,101180.86
2022-12-03T20:39:25.198Z,101181.67
2022-12-03T20:44:27.706Z,101184.36
2022-12-03T20:49:30.391Z,101181.61
2022-12-03T20:54:32.876Z,101174.81
2022-12-03T20:59:35.414Z,101177.35
2022-12-03T21:04:37.880Z,101181.98
2022-12-03T21:09:42.696Z,101174.64
2022-12-03T21:14:45.271Z,101169.84
2022-12-03T21:19:47.836Z,101170.55
2022-12-03T21:24:50.329Z,101172.20
2022-12-03T21:29:53.117Z,101164.47
2022-12-03T21:34:55.744Z,101166.19
2022-12-03T21:39:58.233Z,101165.17
2022-12-03T21:45:00.773Z,101155.52
2022-12-03T21:50:04.785Z,101158.04
2022-12-03T21:55:07.627Z,101160.91
2022-12-03T22:00:10.695Z,101162.24
2022-12-03T22:05:13.494Z,101167.36
2022-12-03T22:10:15.992Z,101163.75
2022-12-03T22:15:19.572Z,101179.23
2022-12-03T22:20:22.295Z,101177.17
2022-12-03T22:25:24.792Z,101171.05
2022-12-03T22:30:27.295Z,101166.92
2022-12-03T22:35:29.766Z,101169.84
2022-12-03T22:40:32.275Z,101174.46
2022-12-03T22:45:35.169Z,101171.95
2022-12-03T22:50:44.531Z,101168.11
2022-12-03T22:55:52.906Z,101166.10
2022-12-03T23:01:01.215Z,101165.91
2022-12-03T23:06:09.379Z,101164.05
2022-12-03T23:11:13.031Z,101166.54
2022-12-03T23:16:19.585Z,101162.02
2022-12-03T23:21:29.332Z,101162.30
2022-12-03T23:26:36.609Z,101163.35
2022-12-03T23:31:39.143Z,101161.90
2022-12-03T23:36:41.659Z,101154.40
2022-12-03T23:41:44.271Z,101161.80
2022-12-03T23:46:46.861Z,101156.45
2022-12-03T23:51:49.469Z,101161.29
2022-12-03T23:56:51.911Z,101164.23
